Portada
METAR-TAF:

METAR-TAF

Aeroports :

Manta, Equador

latitud: 00-57S, longitud: 080-41W, altitud: 13 m

Observació

L'informe es va fer fa 41 minuts, a les 18:00 UTC
Vent 8 kt del Oest/Nord-Oest
Temperatura 30°C
Humitat 66%
Pressió 1009 hPa
Visibilitat 10 km o més
Núvols disperses a una alçada de 2000 ft

METAR: SEMT 071800Z 30008KT 9999 SCT020 30/23 Q1009 RMK A2984

Hora: 13:41 (18:41 UTC)

Pronòstic

L'informe es va fer fa 2 hores i 11 minuts, a les 16:30 UTC
Pronòstic vàlid del 07 a les 18 UTC al 08 a les 18 UTC
Vent 8 kt del Oest/Nord-Oest
Visibilitat 10 km o més
Núvols disperses a una alçada de 2000 ft
Evolucionant progressivament
l' 08 a les 00 UTC al 08 a les 02 UTC
Vent 6 kt del Sud-Oest
Cel ennuvolat a una alçada de 2000 ft
Evolucionant progressivament
l' 08 a les 14 UTC al 08 a les 16 UTC
Núvols disperses a una alçada de 2000 ft

TAF: SEMT 071630Z 0718/0818 30008KT 9999 SCT020 BECMG 0800/0802 22006KT BKN020 BECMG 0814/0816 SCT020 TX230/0720Z TN24/0810Z

Observacions i pronòstics meteorològics de més de 4000 aeroports (METAR i TAF).

Les estacions disponibles són els punts grocs i vermells al mapa.

Posi el ratolí al punt desitjat per veure el nom de l'estació.

Feu clic per veure les observacions i els pronòstics meteorològics.

Per canviar el mapa: feu clic els botons verds amb una creu de color negre per apropar; al botó verd amb un guió per allunyar la imatge; o en les fletxes verdes per a mapes adjacents.


METAR-TAF: